Guymon Municipal Airport Guymon US
ICAO: KGUY
IATA: GUY
Category: Medium
Scheduled Services: No

Elevation: 3123 ft
TransAlt. 18000 ft.

Airport Communications:
ASOS:119.925
KANSAS CITY CNTR:134
CTAF/UNICOM:122.7

KGUY Zoom In..

If you have problems with the map follow the link
https://www.worldairports.se/pages/airport.php?
ICAO=KGUY

Runways:

(A) RW 18 length 5904 ft width 100 ft
---- / hdg 177

(B) RW 36 length 5904 ft width 100 ft
---- / hdg 357

Location; KGUY
Day. 13 / Time. 11.53 Zulu
* Altimeter: 29.86
* Temperature: -01° c. -30.2°f.
* Wind from: 290° Speed 03 kn.
Dewpoint: -07° c.
Visibility: 10 Statute Miles.
Clouds: Clear (automated report).

KGUY 131153Z AUTO 29003KT 10SM CLR M01/M07 A2986 RMK AO2 SLP110 T10061067 10000 21033 56015


Wind From 290°
Speed 03 kn.

 
 
jpsmedia worldairports.se 2019   terms of use